Terminal Aerodrome Forecast
Issued by NWS

Home | Current Version | Previous Version | Text Only | Print | Product List | Glossary On
Versions: 1 2 3 4 5 6 7 8 9 10 11 12
000
FTUS45 KSLC 311120
TAFPVU
TAF
KPVU 311120Z 3112/0112 VRB05KT P6SM SCT140
     FM311800 21008KT P6SM SCT120 SCT200
     FM010300 15009KT P6SM SCT120 BKN200
      AMD LTD TO CLD VIS AND WIND=

USA.gov is the U.S. government's official web portal to all federal, state and local government web resources and services.